sensor_id;sensor_type;location;lat;lon;timestamp;pressure;altitude;pressure_sealevel;temperature;humidity
28000;BME280;15328;50.860;10.562;2022-12-18T00:04:51;97636.34;;;-4.65;59.45
28000;BME280;15328;50.860;10.562;2022-12-18T00:09:51;97629.00;;;-4.73;59.57
28000;BME280;15328;50.860;10.562;2022-12-18T00:14:52;97632.97;;;-4.67;59.29
28000;BME280;15328;50.860;10.562;2022-12-18T00:19:52;97643.84;;;-4.75;59.26
28000;BME280;15328;50.860;10.562;2022-12-18T00:24:52;97656.56;;;-4.84;59.39
28000;BME280;15328;50.860;10.562;2022-12-18T00:29:53;97668.25;;;-4.91;59.09
28000;BME280;15328;50.860;10.562;2022-12-18T00:34:53;97682.13;;;-5.07;59.00
28000;BME280;15328;50.860;10.562;2022-12-18T00:39:54;97663.78;;;-5.18;59.01
28000;BME280;15328;50.860;10.562;2022-12-18T00:44:54;97675.06;;;-5.19;59.85
28000;BME280;15328;50.860;10.562;2022-12-18T00:49:54;97663.38;;;-5.26;59.46
28000;BME280;15328;50.860;10.562;2022-12-18T00:54:55;97678.47;;;-5.33;59.49
28000;BME280;15328;50.860;10.562;2022-12-18T00:59:55;97665.69;;;-5.36;60.40
28000;BME280;15328;50.860;10.562;2022-12-18T01:04:55;97672.44;;;-5.33;60.75
28000;BME280;15328;50.860;10.562;2022-12-18T01:09:56;97675.72;;;-5.15;60.91
28000;BME280;15328;50.860;10.562;2022-12-18T01:14:56;97672.94;;;-5.12;60.65
28000;BME280;15328;50.860;10.562;2022-12-18T01:19:56;97677.13;;;-5.10;61.25
28000;BME280;15328;50.860;10.562;2022-12-18T01:24:57;97678.50;;;-5.04;61.24
28000;BME280;15328;50.860;10.562;2022-12-18T01:29:57;97681.84;;;-5.02;61.04
28000;BME280;15328;50.860;10.562;2022-12-18T01:34:57;97685.38;;;-5.03;60.43
28000;BME280;15328;50.860;10.562;2022-12-18T01:39:58;97686.28;;;-5.04;61.26
28000;BME280;15328;50.860;10.562;2022-12-18T01:50:34;97702.59;;;-5.02;61.14
28000;BME280;15328;50.860;10.562;2022-12-18T01:55:43;97702.72;;;-4.89;60.64
28000;BME280;15328;50.860;10.562;2022-12-18T02:00:45;97698.00;;;-4.83;60.68
28000;BME280;15328;50.860;10.562;2022-12-18T02:05:50;97699.31;;;-4.90;61.48
28000;BME280;15328;50.860;10.562;2022-12-18T02:16:21;97691.22;;;-4.85;60.76
28000;BME280;15328;50.860;10.562;2022-12-18T02:21:46;97684.91;;;-4.81;61.17
28000;BME280;15328;50.860;10.562;2022-12-18T02:26:51;97689.09;;;-4.64;61.25
28000;BME280;15328;50.860;10.562;2022-12-18T02:31:56;97681.13;;;-4.61;62.12
28000;BME280;15328;50.860;10.562;2022-12-18T02:36:58;97666.28;;;-4.59;62.27
28000;BME280;15328;50.860;10.562;2022-12-18T02:42:01;97679.63;;;-4.51;61.78
28000;BME280;15328;50.860;10.562;2022-12-18T02:47:10;97691.69;;;-4.50;61.05
28000;BME280;15328;50.860;10.562;2022-12-18T02:52:28;97685.09;;;-4.56;60.38
28000;BME280;15328;50.860;10.562;2022-12-18T02:57:40;97677.59;;;-4.60;60.14
28000;BME280;15328;50.860;10.562;2022-12-18T03:03:01;97671.84;;;-4.80;60.12
28000;BME280;15328;50.860;10.562;2022-12-18T03:08:22;97669.16;;;-4.78;60.67
28000;BME280;15328;50.860;10.562;2022-12-18T03:13:46;97661.75;;;-4.84;60.08
28000;BME280;15328;50.860;10.562;2022-12-18T03:19:03;97665.78;;;-4.66;60.99
28000;BME280;15328;50.860;10.562;2022-12-18T03:24:06;97681.56;;;-4.55;62.34
28000;BME280;15328;50.860;10.562;2022-12-18T03:29:12;97682.13;;;-4.36;61.85
28000;BME280;15328;50.860;10.562;2022-12-18T03:34:21;97688.97;;;-4.34;61.86
28000;BME280;15328;50.860;10.562;2022-12-18T03:39:24;97690.00;;;-4.37;60.43
28000;BME280;15328;50.860;10.562;2022-12-18T03:49:57;97672.00;;;-4.69;59.97
28000;BME280;15328;50.860;10.562;2022-12-18T03:55:00;97679.66;;;-4.65;59.77
28000;BME280;15328;50.860;10.562;2022-12-18T04:00:09;97680.47;;;-4.79;60.39
28000;BME280;15328;50.860;10.562;2022-12-18T04:05:12;97683.91;;;-4.93;60.62
28000;BME280;15328;50.860;10.562;2022-12-18T04:10:15;97675.81;;;-5.03;60.32
28000;BME280;15328;50.860;10.562;2022-12-18T04:15:16;97680.25;;;-5.19;60.13
28000;BME280;15328;50.860;10.562;2022-12-18T04:20:16;97682.38;;;-5.25;60.20
28000;BME280;15328;50.860;10.562;2022-12-18T04:25:17;97687.25;;;-5.35;60.71
28000;BME280;15328;50.860;10.562;2022-12-18T04:30:17;97693.81;;;-5.44;61.35
28000;BME280;15328;50.860;10.562;2022-12-18T04:35:17;97692.63;;;-5.38;60.06
28000;BME280;15328;50.860;10.562;2022-12-18T04:40:18;97684.19;;;-5.42;60.42
28000;BME280;15328;50.860;10.562;2022-12-18T04:45:18;97696.34;;;-5.42;60.81
28000;BME280;15328;50.860;10.562;2022-12-18T04:50:18;97697.63;;;-5.35;61.60
28000;BME280;15328;50.860;10.562;2022-12-18T04:55:19;97700.78;;;-5.30;61.86
28000;BME280;15328;50.860;10.562;2022-12-18T05:00:20;97694.72;;;-5.15;61.74
28000;BME280;15328;50.860;10.562;2022-12-18T05:05:20;97697.97;;;-5.11;61.85
28000;BME280;15328;50.860;10.562;2022-12-18T05:10:21;97696.75;;;-5.20;61.15
28000;BME280;15328;50.860;10.562;2022-12-18T05:15:21;97695.59;;;-5.30;61.80
28000;BME280;15328;50.860;10.562;2022-12-18T05:20:21;97692.44;;;-5.35;61.54
28000;BME280;15328;50.860;10.562;2022-12-18T05:25:22;97703.47;;;-5.32;61.31
28000;BME280;15328;50.860;10.562;2022-12-18T05:30:23;97705.97;;;-5.30;61.45
28000;BME280;15328;50.860;10.562;2022-12-18T05:35:23;97710.44;;;-5.32;61.28
28000;BME280;15328;50.860;10.562;2022-12-18T05:40:24;97701.91;;;-5.34;61.15
28000;BME280;15328;50.860;10.562;2022-12-18T05:45:24;97694.47;;;-5.40;60.90
28000;BME280;15328;50.860;10.562;2022-12-18T05:50:25;97702.91;;;-5.37;61.19
28000;BME280;15328;50.860;10.562;2022-12-18T05:55:25;97712.31;;;-5.50;61.08
28000;BME280;15328;50.860;10.562;2022-12-18T06:00:26;97713.25;;;-5.51;61.69
28000;BME280;15328;50.860;10.562;2022-12-18T06:05:27;97714.81;;;-5.48;61.32
28000;BME280;15328;50.860;10.562;2022-12-18T06:10:31;97702.47;;;-5.59;61.47
28000;BME280;15328;50.860;10.562;2022-12-18T06:15:32;97703.88;;;-5.53;61.16
28000;BME280;15328;50.860;10.562;2022-12-18T06:20:34;97704.38;;;-5.47;60.92
28000;BME280;15328;50.860;10.562;2022-12-18T06:25:42;97717.34;;;-5.47;61.26
28000;BME280;15328;50.860;10.562;2022-12-18T06:30:46;97711.97;;;-5.44;61.59
28000;BME280;15328;50.860;10.562;2022-12-18T06:35:48;97706.16;;;-5.33;61.61
28000;BME280;15328;50.860;10.562;2022-12-18T06:40:48;97693.75;;;-5.28;61.17
28000;BME280;15328;50.860;10.562;2022-12-18T06:45:57;97687.72;;;-5.29;61.75
28000;BME280;15328;50.860;10.562;2022-12-18T06:50:58;97697.97;;;-5.11;61.41
28000;BME280;15328;50.860;10.562;2022-12-18T06:56:02;97694.16;;;-5.06;61.08
28000;BME280;15328;50.860;10.562;2022-12-18T07:01:08;97704.00;;;-5.11;60.84
28000;BME280;15328;50.860;10.562;2022-12-18T07:06:18;97699.91;;;-5.15;60.07
28000;BME280;15328;50.860;10.562;2022-12-18T07:11:19;97709.13;;;-5.25;59.83
28000;BME280;15328;50.860;10.562;2022-12-18T07:16:20;97713.03;;;-5.32;59.53
28000;BME280;15328;50.860;10.562;2022-12-18T07:21:21;97724.50;;;-5.36;59.55
28000;BME280;15328;50.860;10.562;2022-12-18T07:26:23;97728.78;;;-5.35;60.00
28000;BME280;15328;50.860;10.562;2022-12-18T07:31:24;97739.78;;;-5.46;59.82
28000;BME280;15328;50.860;10.562;2022-12-18T07:36:26;97750.53;;;-5.38;59.92
28000;BME280;15328;50.860;10.562;2022-12-18T07:41:29;97753.72;;;-5.48;59.59
28000;BME280;15328;50.860;10.562;2022-12-18T07:46:29;97766.63;;;-5.47;60.05
28000;BME280;15328;50.860;10.562;2022-12-18T07:51:30;97763.03;;;-5.44;59.46
28000;BME280;15328;50.860;10.562;2022-12-18T07:56:30;97771.63;;;-5.44;59.64
28000;BME280;15328;50.860;10.562;2022-12-18T08:01:31;97781.28;;;-5.46;59.80
28000;BME280;15328;50.860;10.562;2022-12-18T08:06:31;97784.59;;;-5.44;60.07
28000;BME280;15328;50.860;10.562;2022-12-18T08:11:32;97780.50;;;-5.48;60.53
28000;BME280;15328;50.860;10.562;2022-12-18T08:16:33;97777.66;;;-5.43;60.30
28000;BME280;15328;50.860;10.562;2022-12-18T08:21:36;97772.50;;;-5.29;60.59
28000;BME280;15328;50.860;10.562;2022-12-18T08:26:40;97771.91;;;-5.18;60.31
28000;BME280;15328;50.860;10.562;2022-12-18T08:31:40;97767.41;;;-5.01;60.63
28000;BME280;15328;50.860;10.562;2022-12-18T08:36:44;97755.22;;;-4.70;60.85
28000;BME280;15328;50.860;10.562;2022-12-18T08:41:44;97755.22;;;-4.42;59.97
28000;BME280;15328;50.860;10.562;2022-12-18T08:47:06;97754.09;;;-4.23;60.39
28000;BME280;15328;50.860;10.562;2022-12-18T08:52:06;97758.88;;;-3.89;59.95
28000;BME280;15328;50.860;10.562;2022-12-18T08:57:07;97769.28;;;-3.62;59.43
28000;BME280;15328;50.860;10.562;2022-12-18T09:02:10;97758.41;;;-3.27;58.86
28000;BME280;15328;50.860;10.562;2022-12-18T09:07:10;97750.97;;;-2.94;58.21
28000;BME280;15328;50.860;10.562;2022-12-18T09:12:11;97752.44;;;-2.52;58.32
28000;BME280;15328;50.860;10.562;2022-12-18T09:17:11;97738.44;;;-2.12;57.55
28000;BME280;15328;50.860;10.562;2022-12-18T09:22:12;97733.03;;;-1.85;55.22
28000;BME280;15328;50.860;10.562;2022-12-18T09:27:12;97728.72;;;-1.74;55.91
28000;BME280;15328;50.860;10.562;2022-12-18T09:32:12;97726.22;;;-1.75;54.75
28000;BME280;15328;50.860;10.562;2022-12-18T09:37:16;97723.34;;;-1.36;54.60
28000;BME280;15328;50.860;10.562;2022-12-18T09:42:21;97719.31;;;-0.82;52.65
28000;BME280;15328;50.860;10.562;2022-12-18T09:47:29;97719.28;;;-0.25;52.62
28000;BME280;15328;50.860;10.562;2022-12-18T09:52:37;97717.66;;;0.17;51.84
28000;BME280;15328;50.860;10.562;2022-12-18T09:57:45;97718.13;;;0.66;51.25
28000;BME280;15328;50.860;10.562;2022-12-18T10:02:47;97713.44;;;1.01;50.16
28000;BME280;15328;50.860;10.562;2022-12-18T10:08:13;97702.19;;;1.31;49.26
28000;BME280;15328;50.860;10.562;2022-12-18T10:19:32;97697.84;;;1.41;48.98
28000;BME280;15328;50.860;10.562;2022-12-18T10:29:42;97696.78;;;1.53;48.18
28000;BME280;15328;50.860;10.562;2022-12-18T10:34:48;97706.81;;;1.69;47.33
28000;BME280;15328;50.860;10.562;2022-12-18T10:45:18;97705.97;;;2.09;44.72
28000;BME280;15328;50.860;10.562;2022-12-18T10:50:39;97708.03;;;1.96;45.25
28000;BME280;15328;50.860;10.562;2022-12-18T10:55:47;97697.94;;;2.01;45.75
28000;BME280;15328;50.860;10.562;2022-12-18T11:01:15;97703.50;;;2.17;44.34
28000;BME280;15328;50.860;10.562;2022-12-18T11:06:19;97704.53;;;2.45;44.89
28000;BME280;15328;50.860;10.562;2022-12-18T11:11:23;97705.69;;;2.81;44.55
28000;BME280;15328;50.860;10.562;2022-12-18T11:16:33;97713.00;;;2.87;43.65
28000;BME280;15328;50.860;10.562;2022-12-18T11:21:43;97704.38;;;3.24;44.58
28000;BME280;15328;50.860;10.562;2022-12-18T11:26:46;97698.78;;;3.46;44.38
28000;BME280;15328;50.860;10.562;2022-12-18T11:31:50;97700.91;;;3.33;42.97
28000;BME280;15328;50.860;10.562;2022-12-18T11:36:54;97684.22;;;2.95;41.61
28000;BME280;15328;50.860;10.562;2022-12-18T11:42:00;97671.50;;;3.57;41.35
28000;BME280;15328;50.860;10.562;2022-12-18T11:47:23;97662.97;;;3.35;42.41
28000;BME280;15328;50.860;10.562;2022-12-18T11:52:34;97657.63;;;2.98;43.67
28000;BME280;15328;50.860;10.562;2022-12-18T12:14:09;97630.56;;;2.40;44.98
28000;BME280;15328;50.860;10.562;2022-12-18T12:30:04;97647.16;;;2.21;43.63
28000;BME280;15328;50.860;10.562;2022-12-18T12:40:30;97625.59;;;2.37;42.91
28000;BME280;15328;50.860;10.562;2022-12-18T12:50:42;97616.84;;;2.17;42.45
28000;BME280;15328;50.860;10.562;2022-12-18T12:55:44;97599.28;;;1.89;43.66
28000;BME280;15328;50.860;10.562;2022-12-18T13:11:48;97572.41;;;0.85;45.21
28000;BME280;15328;50.860;10.562;2022-12-18T13:22:33;97568.06;;;0.12;46.41
28000;BME280;15328;50.860;10.562;2022-12-18T13:32:47;97555.72;;;-0.40;47.79
28000;BME280;15328;50.860;10.562;2022-12-18T13:37:53;97557.31;;;-0.49;48.58
28000;BME280;15328;50.860;10.562;2022-12-18T13:42:57;97569.28;;;-0.57;50.26
28000;BME280;15328;50.860;10.562;2022-12-18T13:48:34;97559.78;;;-0.58;49.61
28000;BME280;15328;50.860;10.562;2022-12-18T13:53:45;97564.56;;;-0.64;49.09
28000;BME280;15328;50.860;10.562;2022-12-18T13:59:06;97544.38;;;-0.73;49.17
28000;BME280;15328;50.860;10.562;2022-12-18T14:04:17;97547.22;;;-0.87;51.26
28000;BME280;15328;50.860;10.562;2022-12-18T14:09:24;97554.25;;;-0.76;50.65
28000;BME280;15328;50.860;10.562;2022-12-18T14:14:25;97557.34;;;-0.71;49.88
28000;BME280;15328;50.860;10.562;2022-12-18T14:19:25;97548.44;;;-0.80;50.21
28000;BME280;15328;50.860;10.562;2022-12-18T14:24:26;97552.34;;;-0.97;52.17
28000;BME280;15328;50.860;10.562;2022-12-18T14:29:28;97560.66;;;-0.91;51.53
28000;BME280;15328;50.860;10.562;2022-12-18T14:34:29;97577.06;;;-0.78;51.50
28000;BME280;15328;50.860;10.562;2022-12-18T14:39:30;97575.38;;;-1.02;52.11
28000;BME280;15328;50.860;10.562;2022-12-18T14:44:30;97573.25;;;-1.08;51.44
28000;BME280;15328;50.860;10.562;2022-12-18T14:49:33;97565.41;;;-1.30;52.31
28000;BME280;15328;50.860;10.562;2022-12-18T14:54:38;97568.09;;;-1.43;52.31
28000;BME280;15328;50.860;10.562;2022-12-18T14:59:39;97547.78;;;-1.62;52.40
28000;BME280;15328;50.860;10.562;2022-12-18T15:04:43;97540.16;;;-1.65;52.17
28000;BME280;15328;50.860;10.562;2022-12-18T15:10:02;97532.84;;;-1.60;52.28
28000;BME280;15328;50.860;10.562;2022-12-18T15:20:56;97539.50;;;-1.11;49.25
28000;BME280;15328;50.860;10.562;2022-12-18T15:26:09;97529.41;;;-0.71;46.96
28000;BME280;15328;50.860;10.562;2022-12-18T15:43:08;97533.91;;;-0.18;44.50
28000;BME280;15328;50.860;10.562;2022-12-18T15:48:26;97535.41;;;-0.05;43.13
28000;BME280;15328;50.860;10.562;2022-12-18T15:53:30;97505.47;;;-0.12;42.09
28000;BME280;15328;50.860;10.562;2022-12-18T15:58:32;97496.38;;;0.04;42.84
28000;BME280;15328;50.860;10.562;2022-12-18T16:03:33;97511.63;;;0.19;42.83
28000;BME280;15328;50.860;10.562;2022-12-18T16:08:34;97499.81;;;0.04;42.81
28000;BME280;15328;50.860;10.562;2022-12-18T16:13:35;97496.63;;;0.01;42.27
28000;BME280;15328;50.860;10.562;2022-12-18T16:18:36;97515.41;;;0.06;42.02
28000;BME280;15328;50.860;10.562;2022-12-18T16:23:37;97512.19;;;0.23;42.09
28000;BME280;15328;50.860;10.562;2022-12-18T16:28:37;97492.78;;;0.25;42.25
28000;BME280;15328;50.860;10.562;2022-12-18T16:33:37;97491.19;;;0.13;41.80
28000;BME280;15328;50.860;10.562;2022-12-18T16:38:38;97495.69;;;0.02;42.83
28000;BME280;15328;50.860;10.562;2022-12-18T16:43:38;97497.81;;;-0.04;42.34
28000;BME280;15328;50.860;10.562;2022-12-18T16:48:38;97492.13;;;-0.09;42.42
28000;BME280;15328;50.860;10.562;2022-12-18T16:53:39;97512.34;;;0.01;42.59
28000;BME280;15328;50.860;10.562;2022-12-18T16:58:39;97483.75;;;0.09;41.82
28000;BME280;15328;50.860;10.562;2022-12-18T17:03:39;97478.22;;;-0.09;41.79
28000;BME280;15328;50.860;10.562;2022-12-18T17:08:40;97495.91;;;-0.02;42.36
28000;BME280;15328;50.860;10.562;2022-12-18T17:13:40;97480.41;;;0.07;42.59
28000;BME280;15328;50.860;10.562;2022-12-18T17:18:41;97476.94;;;-0.15;43.32
28000;BME280;15328;50.860;10.562;2022-12-18T17:23:42;97470.69;;;-0.03;43.17
28000;BME280;15328;50.860;10.562;2022-12-18T17:28:43;97477.00;;;-0.05;42.92
28000;BME280;15328;50.860;10.562;2022-12-18T17:33:43;97465.25;;;0.01;42.83
28000;BME280;15328;50.860;10.562;2022-12-18T17:38:52;97458.66;;;-0.15;44.09
28000;BME280;15328;50.860;10.562;2022-12-18T17:43:57;97464.06;;;-0.07;43.21
28000;BME280;15328;50.860;10.562;2022-12-18T17:48:59;97462.97;;;-0.04;43.85
28000;BME280;15328;50.860;10.562;2022-12-18T17:54:00;97443.09;;;0.05;42.93
28000;BME280;15328;50.860;10.562;2022-12-18T17:59:00;97441.66;;;0.21;43.73
28000;BME280;15328;50.860;10.562;2022-12-18T18:04:02;97447.97;;;0.40;43.05
28000;BME280;15328;50.860;10.562;2022-12-18T18:09:03;97445.66;;;0.46;41.61
28000;BME280;15328;50.860;10.562;2022-12-18T18:14:07;97457.47;;;0.41;42.33
28000;BME280;15328;50.860;10.562;2022-12-18T18:19:13;97436.81;;;0.38;42.95
28000;BME280;15328;50.860;10.562;2022-12-18T18:24:16;97461.41;;;0.05;42.81
28000;BME280;15328;50.860;10.562;2022-12-18T18:29:19;97437.31;;;0.32;42.83
28000;BME280;15328;50.860;10.562;2022-12-18T18:34:25;97437.94;;;0.24;43.59
28000;BME280;15328;50.860;10.562;2022-12-18T18:39:26;97445.81;;;0.24;43.69
28000;BME280;15328;50.860;10.562;2022-12-18T18:44:27;97425.81;;;0.23;43.35
28000;BME280;15328;50.860;10.562;2022-12-18T18:49:27;97436.69;;;0.18;43.39
28000;BME280;15328;50.860;10.562;2022-12-18T18:54:28;97450.25;;;0.03;43.82
28000;BME280;15328;50.860;10.562;2022-12-18T18:59:30;97440.00;;;-0.01;43.17
28000;BME280;15328;50.860;10.562;2022-12-18T19:04:32;97444.31;;;0.01;43.48
28000;BME280;15328;50.860;10.562;2022-12-18T19:09:33;97461.00;;;-0.12;44.18
28000;BME280;15328;50.860;10.562;2022-12-18T19:14:35;97451.56;;;-0.24;44.49
28000;BME280;15328;50.860;10.562;2022-12-18T19:19:35;97431.06;;;-0.40;45.52
28000;BME280;15328;50.860;10.562;2022-12-18T19:24:36;97423.41;;;-0.52;46.04
28000;BME280;15328;50.860;10.562;2022-12-18T19:29:36;97414.59;;;-0.51;46.45
28000;BME280;15328;50.860;10.562;2022-12-18T19:34:36;97417.75;;;-0.69;45.66
28000;BME280;15328;50.860;10.562;2022-12-18T19:39:37;97403.03;;;-0.70;45.50
28000;BME280;15328;50.860;10.562;2022-12-18T19:44:37;97401.34;;;-0.71;46.20
28000;BME280;15328;50.860;10.562;2022-12-18T19:49:37;97418.69;;;-0.70;46.30
28000;BME280;15328;50.860;10.562;2022-12-18T19:54:38;97412.56;;;-0.80;46.11
28000;BME280;15328;50.860;10.562;2022-12-18T19:59:38;97397.59;;;-0.78;46.62
28000;BME280;15328;50.860;10.562;2022-12-18T20:04:39;97410.34;;;-0.64;46.57
28000;BME280;15328;50.860;10.562;2022-12-18T20:09:39;97413.78;;;-0.63;47.56
28000;BME280;15328;50.860;10.562;2022-12-18T20:14:40;97408.00;;;-0.67;47.92
28000;BME280;15328;50.860;10.562;2022-12-18T20:19:40;97395.94;;;-0.58;47.77
28000;BME280;15328;50.860;10.562;2022-12-18T20:24:40;97406.53;;;-0.59;47.42
28000;BME280;15328;50.860;10.562;2022-12-18T20:29:41;97391.56;;;-0.57;47.57
28000;BME280;15328;50.860;10.562;2022-12-18T20:34:42;97414.38;;;-0.59;48.29
28000;BME280;15328;50.860;10.562;2022-12-18T20:39:43;97402.38;;;-0.62;48.80
28000;BME280;15328;50.860;10.562;2022-12-18T20:44:43;97402.50;;;-0.64;48.05
28000;BME280;15328;50.860;10.562;2022-12-18T20:49:44;97378.78;;;-0.72;48.56
28000;BME280;15328;50.860;10.562;2022-12-18T20:54:45;97400.28;;;-0.68;49.09
28000;BME280;15328;50.860;10.562;2022-12-18T20:59:45;97382.94;;;-0.69;47.70
28000;BME280;15328;50.860;10.562;2022-12-18T21:04:46;97367.63;;;-0.74;48.67
28000;BME280;15328;50.860;10.562;2022-12-18T21:09:46;97368.34;;;-0.72;48.37
28000;BME280;15328;50.860;10.562;2022-12-18T21:14:46;97361.06;;;-0.68;49.17
28000;BME280;15328;50.860;10.562;2022-12-18T21:19:47;97368.41;;;-0.62;47.96
28000;BME280;15328;50.860;10.562;2022-12-18T21:24:47;97368.28;;;-0.60;47.95
28000;BME280;15328;50.860;10.562;2022-12-18T21:29:57;97361.63;;;-0.53;47.76
28000;BME280;15328;50.860;10.562;2022-12-18T21:35:01;97361.09;;;-0.47;48.20
28000;BME280;15328;50.860;10.562;2022-12-18T21:40:02;97351.47;;;-0.47;48.64
28000;BME280;15328;50.860;10.562;2022-12-18T21:45:06;97350.13;;;-0.41;47.76
28000;BME280;15328;50.860;10.562;2022-12-18T21:50:07;97349.75;;;-0.37;48.05
28000;BME280;15328;50.860;10.562;2022-12-18T21:55:08;97335.03;;;-0.38;48.32
28000;BME280;15328;50.860;10.562;2022-12-18T22:00:12;97333.09;;;-0.36;47.75
28000;BME280;15328;50.860;10.562;2022-12-18T22:05:13;97337.38;;;-0.55;48.48
28000;BME280;15328;50.860;10.562;2022-12-18T22:10:16;97334.84;;;-0.46;48.19
28000;BME280;15328;50.860;10.562;2022-12-18T22:15:19;97343.31;;;-0.33;48.51
28000;BME280;15328;50.860;10.562;2022-12-18T22:20:23;97323.59;;;-0.37;48.36
28000;BME280;15328;50.860;10.562;2022-12-18T22:25:24;97306.59;;;-0.52;48.04
28000;BME280;15328;50.860;10.562;2022-12-18T22:30:27;97300.91;;;-0.57;48.25
28000;BME280;15328;50.860;10.562;2022-12-18T22:35:31;97297.41;;;-0.67;49.05
28000;BME280;15328;50.860;10.562;2022-12-18T22:40:37;97300.75;;;-0.97;49.96
28000;BME280;15328;50.860;10.562;2022-12-18T22:45:37;97299.53;;;-0.93;49.57
28000;BME280;15328;50.860;10.562;2022-12-18T22:50:38;97273.94;;;-0.78;48.72
28000;BME280;15328;50.860;10.562;2022-12-18T22:55:38;97288.81;;;-0.79;49.24
28000;BME280;15328;50.860;10.562;2022-12-18T23:00:39;97285.72;;;-0.63;49.75
28000;BME280;15328;50.860;10.562;2022-12-18T23:05:40;97284.47;;;-0.48;49.72
28000;BME280;15328;50.860;10.562;2022-12-18T23:10:41;97286.44;;;-0.40;48.33
28000;BME280;15328;50.860;10.562;2022-12-18T23:15:41;97292.19;;;-0.46;49.22
28000;BME280;15328;50.860;10.562;2022-12-18T23:20:46;97273.25;;;-0.29;49.35
28000;BME280;15328;50.860;10.562;2022-12-18T23:25:47;97270.84;;;-0.51;48.46
28000;BME280;15328;50.860;10.562;2022-12-18T23:30:47;97259.47;;;-0.41;49.21
28000;BME280;15328;50.860;10.562;2022-12-18T23:35:51;97251.78;;;-0.33;49.14
28000;BME280;15328;50.860;10.562;2022-12-18T23:40:52;97257.94;;;-0.43;48.52
28000;BME280;15328;50.860;10.562;2022-12-18T23:45:52;97250.50;;;-0.69;48.89
28000;BME280;15328;50.860;10.562;2022-12-18T23:50:53;97254.88;;;-0.90;49.89
28000;BME280;15328;50.860;10.562;2022-12-18T23:55:53;97250.53;;;-1.21;50.83
